Main page
METAR-TAF:

METAR-TAF

Airports :

Loei Airport

Loei, Thailand

latitude: 17-27N, longitude: 101-44E, elevation: 253 m

Current weather observation

The report was made 1 hour and 6 minutes ago, at 10:00 UTC
Calm wind
Temperature 26°C
Humidity 94%
Pressure 1002 hPa
Visibility 10 km or more
Broken clouds at a height of 3000 ft

METAR: VTUL 231000Z 00000KT 9999 BKN030 26/25 Q1002 NOSIG

Time: 18:06 (11:06 UTC)

Forecast

The report was made 6 hours and 6 minutes ago, at 05:00 UTC
Forecast valid from 23 at 06 UTC to 24 at 06 UTC
Wind 5 kt from the South
Visibility: 9000 m
Scattered clouds at a height of 2500 ft
Temporary
from 23 at 07 UTC to 23 at 13 UTC
Wind 15 kt from variable directions
Few clouds at a height of 1800 ft, Cumulonimbus.
Broken clouds at a height of 2500 ft
thunderstorm, light rain,

TAF: VTUL 230500Z 2306/2406 19005KT 9000 SCT025 TEMPO 2307/2313 VRB15KT -TSRA FEW018CB BKN025

Weather observations and forecasts of more than 4000 airports (METAR and TAF reports).

The available stations are represented by yellow and red dots on the map.

Hover mouse over dot to see the name of the station.

Then click to see weather observations and forecasts.

To change the map : click on the green buttons with a black cross to zoom in, on the green button with a dash to zoom out, or on the green arrows for adjacent maps.


METAR-TAF: